createdAt,value
2022-10-06T00:24:46.230Z,95.30
2022-10-06T00:27:14.209Z,95.00
2022-10-06T00:29:42.897Z,94.90
2022-10-06T00:32:12.913Z,94.80
2022-10-06T00:34:40.972Z,94.80
2022-10-06T00:37:11.036Z,94.60
2022-10-06T00:39:41.877Z,94.50
2022-10-06T00:42:24.333Z,94.60
2022-10-06T00:44:53.928Z,94.50
2022-10-06T00:47:25.713Z,94.20
2022-10-06T00:49:56.373Z,94.70
2022-10-06T00:52:27.472Z,94.90
2022-10-06T00:54:55.917Z,94.80
2022-10-06T00:57:26.640Z,95.00
2022-10-06T00:59:55.409Z,95.10
2022-10-06T01:02:28.722Z,95.10
2022-10-06T01:05:03.531Z,94.80
2022-10-06T01:07:32.411Z,95.70
2022-10-06T01:10:00.519Z,95.40
2022-10-06T01:12:32.268Z,95.20
2022-10-06T01:15:00.416Z,94.90
2022-10-06T01:17:35.273Z,95.20
2022-10-06T01:20:08.860Z,95.10
2022-10-06T01:22:41.206Z,94.50
2022-10-06T01:25:11.444Z,93.90
2022-10-06T01:27:41.781Z,93.00
2022-10-06T01:30:15.542Z,92.80
2022-10-06T01:32:46.673Z,92.60
2022-10-06T01:35:14.755Z,93.10
2022-10-06T01:37:44.221Z,93.50
2022-10-06T01:40:12.319Z,94.00
2022-10-06T01:42:41.034Z,94.20
2022-10-06T01:45:09.773Z,94.50
2022-10-06T01:47:37.821Z,94.60
2022-10-06T01:50:07.251Z,94.70
2022-10-06T01:52:36.602Z,95.30
2022-10-06T01:55:07.257Z,95.00
2022-10-06T01:57:40.046Z,95.30
2022-10-06T02:00:11.126Z,95.30
2022-10-06T02:02:43.862Z,95.10
2022-10-06T02:05:21.134Z,95.50
2022-10-06T02:07:52.209Z,95.60
2022-10-06T02:10:21.845Z,95.90
2022-10-06T02:12:52.208Z,95.70
2022-10-06T02:15:22.691Z,95.30
2022-10-06T02:17:52.165Z,94.90
2022-10-06T02:20:20.137Z,94.60
2022-10-06T02:22:48.137Z,94.60
2022-10-06T02:25:17.203Z,94.70
2022-10-06T02:27:47.499Z,94.50
2022-10-06T02:30:15.863Z,94.00
2022-10-06T02:32:45.061Z,93.60
2022-10-06T02:35:13.750Z,93.30
2022-10-06T02:37:42.531Z,92.90
2022-10-06T02:40:13.111Z,92.60
2022-10-06T02:42:41.076Z,92.70
2022-10-06T02:45:12.342Z,92.60
2022-10-06T02:47:40.807Z,92.30
2022-10-06T02:50:09.575Z,91.80
2022-10-06T02:52:42.664Z,91.40
2022-10-06T02:55:14.163Z,91.10
2022-10-06T02:57:42.220Z,91.30
2022-10-06T03:00:14.830Z,91.50
2022-10-06T03:02:43.002Z,92.00
2022-10-06T03:05:11.368Z,91.90
2022-10-06T03:07:39.494Z,92.50
2022-10-06T03:10:10.421Z,92.70
2022-10-06T03:12:38.531Z,92.80
2022-10-06T03:15:09.367Z,93.10
2022-10-06T03:17:38.874Z,93.30
2022-10-06T03:20:08.306Z,93.40
2022-10-06T03:22:36.295Z,93.80
2022-10-06T03:25:04.394Z,93.90
2022-10-06T03:27:33.749Z,94.40
2022-10-06T03:30:06.025Z,94.80
2022-10-06T03:32:35.918Z,94.90
2022-10-06T03:35:05.940Z,94.70
2022-10-06T03:37:35.047Z,94.80
2022-10-06T03:40:03.264Z,95.00
2022-10-06T03:42:32.188Z,95.40
2022-10-06T03:45:00.402Z,96.00
2022-10-06T03:47:30.825Z,94.40
2022-10-06T03:49:59.343Z,94.40
2022-10-06T03:52:28.950Z,94.00
2022-10-06T03:54:59.293Z,92.90
2022-10-06T03:57:27.325Z,91.90
2022-10-06T03:59:59.185Z,91.10
2022-10-06T04:02:27.333Z,90.60
2022-10-06T04:04:56.345Z,89.90
2022-10-06T04:07:25.564Z,89.00
2022-10-06T04:09:57.190Z,88.60
2022-10-06T04:12:25.267Z,88.40
2022-10-06T04:14:57.800Z,88.30
2022-10-06T04:17:28.416Z,88.60
2022-10-06T04:19:56.741Z,88.90
2022-10-06T04:22:24.912Z,89.60
2022-10-06T04:24:53.417Z,90.20
2022-10-06T04:27:28.801Z,90.80
2022-10-06T04:30:07.391Z,91.10
2022-10-06T04:32:35.965Z,91.10
2022-10-06T04:35:05.059Z,91.20
2022-10-06T04:37:33.364Z,91.30
2022-10-06T04:40:01.591Z,91.10
2022-10-06T04:42:35.066Z,90.50
2022-10-06T04:45:07.051Z,90.20
2022-10-06T04:47:35.864Z,89.80
2022-10-06T04:50:05.047Z,89.20
2022-10-06T04:52:33.130Z,88.80
2022-10-06T04:55:01.308Z,89.50
2022-10-06T04:57:29.373Z,88.20
2022-10-06T05:00:16.626Z,87.40
2022-10-06T05:02:47.004Z,86.90
2022-10-06T05:05:15.220Z,86.50
2022-10-06T05:07:45.042Z,86.20
2022-10-06T05:10:13.881Z,86.10
2022-10-06T05:12:41.974Z,86.10
2022-10-06T05:15:12.152Z,85.80
2022-10-06T05:17:40.855Z,85.40
2022-10-06T05:20:10.978Z,85.50
2022-10-06T05:22:39.986Z,85.40
2022-10-06T05:25:08.686Z,85.40
2022-10-06T05:27:36.743Z,85.20
2022-10-06T05:30:05.690Z,85.10
2022-10-06T05:32:36.237Z,84.80
2022-10-06T05:35:05.583Z,84.80
2022-10-06T05:37:33.638Z,84.20
2022-10-06T05:40:01.824Z,83.90
2022-10-06T05:42:32.365Z,84.30
2022-10-06T05:45:01.292Z,84.10
2022-10-06T05:47:29.773Z,83.70
2022-10-06T05:49:59.406Z,84.50
2022-10-06T05:52:27.635Z,83.60
2022-10-06T05:54:55.650Z,83.30
2022-10-06T05:57:23.766Z,83.30
2022-10-06T05:59:51.822Z,83.10
2022-10-06T06:02:19.917Z,82.60
2022-10-06T06:04:48.043Z,82.50
2022-10-06T06:07:17.468Z,82.10
2022-10-06T06:09:46.882Z,82.40
2022-10-06T06:12:16.534Z,82.20
2022-10-06T06:15:06.851Z,81.80
2022-10-06T06:17:40.698Z,82.30
2022-10-06T06:20:10.000Z,81.70
2022-10-06T06:22:41.255Z,81.50
2022-10-06T06:25:10.304Z,81.10
2022-10-06T06:27:39.163Z,80.80
2022-10-06T06:30:09.894Z,80.30
2022-10-06T06:32:38.217Z,80.50
2022-10-06T06:35:10.388Z,80.40
2022-10-06T06:37:40.227Z,80.10
2022-10-06T06:40:09.310Z,79.90
2022-10-06T06:42:39.757Z,79.50
2022-10-06T06:45:22.655Z,79.80
2022-10-06T06:48:02.317Z,78.70
2022-10-06T06:50:31.557Z,79.20
2022-10-06T06:53:02.472Z,79.00
2022-10-06T06:55:32.061Z,78.80
2022-10-06T06:58:01.129Z,79.00
2022-10-06T07:00:33.793Z,78.40
2022-10-06T07:03:04.601Z,78.70
2022-10-06T07:05:33.586Z,79.00
2022-10-06T07:08:03.091Z,78.90
2022-10-06T07:10:35.323Z,79.00
2022-10-06T07:13:06.766Z,79.20
2022-10-06T07:15:52.386Z,78.90
2022-10-06T07:18:38.128Z,78.70
2022-10-06T07:21:42.794Z,80.10
2022-10-06T07:24:29.690Z,80.80
2022-10-06T07:27:00.239Z,81.20
2022-10-06T07:29:28.297Z,81.20
2022-10-06T07:31:56.502Z,81.10
2022-10-06T07:34:24.627Z,81.00
2022-10-06T07:36:54.098Z,81.10
2022-10-06T07:39:24.430Z,81.50
2022-10-06T07:41:52.621Z,82.70
2022-10-06T07:44:21.454Z,82.30
2022-10-06T07:46:52.382Z,82.20
2022-10-06T07:49:33.665Z,82.30
2022-10-06T07:52:02.577Z,83.00
2022-10-06T07:54:32.217Z,84.00
2022-10-06T07:57:17.894Z,84.30
2022-10-06T07:59:46.242Z,83.80
2022-10-06T08:02:15.577Z,83.60
2022-10-06T08:04:43.648Z,80.90
2022-10-06T08:07:14.077Z,81.60
2022-10-06T08:09:43.447Z,80.70
2022-10-06T08:12:25.430Z,79.70
2022-10-06T08:14:53.992Z,77.60
2022-10-06T08:17:22.201Z,77.00
2022-10-06T08:19:50.400Z,76.20
2022-10-06T08:22:18.486Z,76.70
2022-10-06T08:25:04.234Z,75.30
2022-10-06T08:27:34.836Z,76.30
2022-10-06T08:30:03.614Z,76.40
2022-10-06T08:32:32.262Z,75.60
2022-10-06T08:35:00.647Z,76.00
2022-10-06T08:37:28.788Z,74.20
2022-10-06T08:39:58.483Z,73.70
2022-10-06T08:42:35.014Z,72.80
2022-10-06T08:45:05.983Z,73.30
2022-10-06T08:47:37.574Z,73.90
2022-10-06T08:50:10.272Z,73.60
2022-10-06T08:52:49.439Z,73.40
2022-10-06T08:55:30.521Z,72.80
2022-10-06T08:58:12.783Z,72.80
2022-10-06T09:00:40.997Z,71.90
2022-10-06T09:03:24.230Z,72.00
2022-10-06T09:06:03.479Z,71.40
2022-10-06T09:08:42.383Z,71.70
2022-10-06T09:11:33.133Z,69.80
2022-10-06T09:14:05.624Z,69.00
2022-10-06T09:16:37.996Z,68.30
2022-10-06T09:19:14.367Z,67.20
2022-10-06T09:21:47.106Z,66.90
2022-10-06T09:24:18.608Z,66.10
2022-10-06T09:26:51.944Z,65.30
2022-10-06T09:29:20.665Z,65.80
2022-10-06T09:31:50.518Z,64.40
2022-10-06T09:34:26.442Z,63.60
2022-10-06T09:37:03.020Z,62.90
2022-10-06T09:39:36.572Z,61.90
2022-10-06T09:42:14.353Z,61.20
2022-10-06T09:44:52.985Z,59.20
2022-10-06T09:47:45.193Z,61.10
2022-10-06T09:50:26.147Z,63.00
2022-10-06T09:53:16.772Z,63.40
2022-10-06T09:55:56.623Z,62.40
2022-10-06T09:58:34.199Z,63.60
2022-10-06T10:01:04.564Z,63.20
2022-10-06T10:04:02.083Z,63.80
2022-10-06T10:06:36.050Z,64.40
2022-10-06T10:09:27.029Z,64.00
2022-10-06T10:12:27.270Z,62.50
2022-10-06T10:15:23.376Z,62.40
2022-10-06T10:17:54.109Z,63.40
2022-10-06T10:20:34.223Z,61.50
2022-10-06T10:23:07.061Z,61.00
2022-10-06T10:26:15.268Z,61.70
2022-10-06T10:29:16.968Z,62.50
2022-10-06T10:31:57.621Z,60.70
2022-10-06T10:34:46.334Z,60.40
2022-10-06T10:37:21.876Z,62.20
2022-10-06T10:39:53.676Z,63.20
2022-10-06T10:42:29.508Z,63.30
2022-10-06T10:45:01.816Z,62.10
2022-10-06T10:47:35.308Z,62.30
2022-10-06T10:50:08.412Z,61.80
2022-10-06T10:52:43.320Z,61.70
2022-10-06T10:55:23.298Z,61.90
2022-10-06T10:57:52.956Z,61.40
2022-10-06T11:00:23.026Z,62.00
2022-10-06T11:02:54.984Z,61.60
2022-10-06T11:05:53.283Z,62.60
2022-10-06T11:08:28.858Z,61.40
2022-10-06T11:10:59.915Z,60.90
2022-10-06T11:13:33.750Z,59.30
2022-10-06T11:16:16.878Z,58.40
2022-10-06T11:18:59.734Z,57.70
2022-10-06T11:21:34.690Z,57.10
2022-10-06T11:24:15.513Z,58.10
2022-10-06T11:26:59.060Z,59.80
2022-10-06T11:29:36.411Z,61.90
2022-10-06T11:32:17.891Z,63.70
2022-10-06T11:34:49.604Z,63.70
2022-10-06T11:37:25.992Z,62.90
2022-10-06T11:40:10.452Z,61.00
2022-10-06T11:42:45.357Z,60.80
2022-10-06T11:45:15.829Z,60.60
2022-10-06T11:48:00.264Z,61.20
2022-10-06T11:50:38.791Z,59.50
2022-10-06T11:53:07.584Z,58.00
2022-10-06T11:55:35.673Z,55.20
2022-10-06T11:58:41.832Z,55.60
2022-10-06T12:00:59.158Z,54.10
2022-10-06T12:03:47.354Z,54.00
2022-10-06T12:06:52.885Z,53.40
2022-10-06T12:09:51.755Z,54.20
2022-10-06T12:13:05.271Z,55.90
2022-10-06T12:18:51.111Z,56.80
2022-10-06T12:21:44.891Z,57.20
2022-10-06T12:24:31.687Z,57.10
2022-10-06T12:27:26.465Z,57.60
2022-10-06T12:30:03.170Z,57.90
2022-10-06T12:32:46.553Z,58.00
2022-10-06T12:35:32.306Z,58.30
2022-10-06T12:38:04.712Z,57.70
2022-10-06T12:40:51.403Z,56.10
2022-10-06T12:44:00.569Z,53.80
2022-10-06T12:46:46.106Z,53.20
2022-10-06T12:49:43.428Z,53.60
2022-10-06T12:52:18.494Z,53.40
2022-10-06T12:54:57.404Z,53.50
2022-10-06T12:57:30.613Z,53.30
2022-10-06T12:59:58.899Z,53.00
2022-10-06T13:02:29.300Z,53.40
2022-10-06T13:05:01.014Z,53.50
2022-10-06T13:07:31.235Z,54.60
2022-10-06T13:10:19.752Z,54.40
2022-10-06T13:12:50.385Z,54.00
2022-10-06T13:15:23.774Z,53.70
2022-10-06T13:17:56.358Z,53.70
2022-10-06T13:20:32.179Z,53.60
2022-10-06T13:23:02.081Z,53.10
2022-10-06T13:25:42.255Z,53.80
2022-10-06T13:28:25.300Z,53.70
2022-10-06T13:30:55.373Z,53.60
2022-10-06T13:33:27.552Z,53.90
2022-10-06T13:35:56.283Z,53.80
2022-10-06T13:38:24.456Z,54.00
2022-10-06T13:41:06.814Z,53.70
2022-10-06T13:43:39.950Z,54.90
2022-10-06T13:46:13.212Z,55.20
2022-10-06T13:48:48.512Z,54.90
2022-10-06T13:51:19.858Z,55.00
2022-10-06T13:53:48.733Z,54.70
2022-10-06T13:56:35.565Z,55.30
2022-10-06T13:59:36.593Z,55.90
2022-10-06T14:02:25.216Z,56.20
2022-10-06T14:05:39.499Z,55.50
2022-10-06T14:08:23.632Z,55.10
2022-10-06T14:10:55.382Z,55.10
2022-10-06T14:13:28.050Z,55.10
2022-10-06T14:15:59.975Z,54.90
2022-10-06T14:18:31.092Z,54.70
2022-10-06T14:20:59.337Z,53.70
2022-10-06T14:23:41.162Z,54.10
2022-10-06T14:26:11.135Z,53.90
2022-10-06T14:28:39.707Z,53.10
2022-10-06T14:31:13.498Z,52.40
2022-10-06T14:33:42.734Z,53.50
2022-10-06T14:36:19.264Z,53.00
2022-10-06T14:38:50.360Z,51.10
2022-10-06T14:41:24.557Z,51.20
2022-10-06T14:43:55.229Z,50.20
2022-10-06T14:46:24.392Z,50.40
2022-10-06T14:48:55.668Z,49.60
2022-10-06T14:51:24.753Z,49.70
2022-10-06T14:53:56.462Z,48.70
2022-10-06T14:56:27.466Z,49.30
2022-10-06T14:58:55.972Z,50.50
2022-10-06T15:01:26.350Z,50.20
2022-10-06T15:03:55.666Z,49.70
2022-10-06T15:06:41.920Z,48.40
2022-10-06T15:09:12.009Z,48.60
2022-10-06T15:11:40.560Z,48.40
2022-10-06T15:14:09.370Z,48.20
2022-10-06T15:16:40.753Z,48.50
2022-10-06T15:19:09.200Z,48.00
2022-10-06T15:21:39.776Z,47.50
2022-10-06T15:24:09.068Z,46.80
2022-10-06T15:26:55.977Z,46.00
2022-10-06T15:29:24.066Z,45.40
2022-10-06T15:31:54.677Z,46.30
2022-10-06T15:34:25.169Z,46.60
2022-10-06T15:36:54.760Z,47.10
2022-10-06T15:39:24.687Z,47.50
2022-10-06T15:41:54.907Z,48.30
2022-10-06T15:44:23.296Z,48.70
2022-10-06T15:46:52.777Z,49.00
2022-10-06T15:49:24.666Z,49.10
2022-10-06T15:51:54.566Z,49.70
2022-10-06T15:54:24.627Z,50.30
2022-10-06T15:57:03.522Z,50.70
2022-10-06T15:59:34.036Z,51.10
2022-10-06T16:02:04.801Z,51.10
2022-10-06T16:04:47.063Z,51.10
2022-10-06T16:07:17.517Z,51.40
2022-10-06T16:09:47.265Z,51.80
2022-10-06T16:12:19.043Z,51.60
2022-10-06T16:14:47.505Z,51.40
2022-10-06T16:17:18.449Z,51.30
2022-10-06T16:19:46.908Z,51.30
2022-10-06T16:22:17.289Z,52.00
2022-10-06T16:24:45.580Z,52.40
2022-10-06T16:27:14.623Z,53.70
2022-10-06T16:29:46.439Z,53.50
2022-10-06T16:32:14.994Z,56.10
2022-10-06T16:34:43.043Z,54.90
2022-10-06T16:37:11.082Z,55.20
2022-10-06T16:39:39.112Z,55.40
2022-10-06T16:42:09.849Z,55.80
2022-10-06T16:44:37.896Z,56.00
2022-10-06T16:47:07.429Z,56.80
2022-10-06T16:49:35.464Z,57.00
2022-10-06T16:52:03.511Z,56.90
2022-10-06T16:54:31.581Z,57.20
2022-10-06T16:57:04.152Z,57.60
2022-10-06T16:59:32.265Z,57.80
2022-10-06T17:02:00.365Z,58.00
2022-10-06T17:04:30.052Z,58.40
2022-10-06T17:06:58.959Z,59.00
2022-10-06T17:09:29.684Z,59.20
2022-10-06T17:11:59.683Z,59.30
2022-10-06T17:14:30.338Z,59.50
2022-10-06T17:16:59.358Z,60.00
2022-10-06T17:19:30.619Z,60.00
2022-10-06T17:21:59.997Z,60.70
2022-10-06T17:24:29.476Z,60.80
2022-10-06T17:26:58.891Z,61.00
2022-10-06T17:29:27.661Z,61.80
2022-10-06T17:32:00.578Z,64.00
2022-10-06T17:34:33.805Z,65.70
2022-10-06T17:37:02.799Z,67.60
2022-10-06T17:39:31.048Z,69.60
2022-10-06T17:41:59.179Z,70.00
2022-10-06T17:44:28.765Z,70.20
2022-10-06T17:46:58.590Z,70.50
2022-10-06T17:49:27.983Z,71.50
2022-10-06T17:51:57.922Z,71.10
2022-10-06T17:54:28.814Z,71.20
2022-10-06T17:56:59.278Z,71.60
2022-10-06T17:59:30.351Z,71.30
2022-10-06T18:02:03.478Z,72.30
2022-10-06T18:04:33.752Z,73.00
2022-10-06T18:07:03.804Z,73.30
2022-10-06T18:09:31.809Z,74.30
2022-10-06T18:12:00.236Z,74.60
2022-10-06T18:14:32.178Z,75.40
2022-10-06T18:17:02.332Z,75.00
2022-10-06T18:19:32.766Z,76.00
2022-10-06T18:22:04.887Z,77.20
2022-10-06T18:24:33.262Z,78.40
2022-10-06T18:27:02.267Z,79.00
2022-10-06T18:29:32.897Z,80.10
2022-10-06T18:32:36.011Z,81.80
2022-10-06T18:37:39.727Z,82.00
2022-10-06T18:40:09.920Z,82.50
2022-10-06T18:42:38.520Z,83.30
2022-10-06T18:45:29.767Z,82.90
2022-10-06T18:48:15.299Z,82.80
2022-10-06T18:50:43.873Z,83.50
2022-10-06T18:53:13.730Z,84.10
2022-10-06T18:55:41.783Z,84.30
2022-10-06T18:58:10.106Z,84.40
2022-10-06T19:00:39.434Z,84.60
2022-10-06T19:03:08.056Z,85.20
2022-10-06T19:05:36.382Z,85.60
2022-10-06T19:08:05.127Z,85.90
2022-10-06T19:10:57.426Z,85.90
2022-10-06T19:13:25.696Z,86.60
2022-10-06T19:15:55.972Z,88.10
2022-10-06T19:18:24.297Z,87.60
2022-10-06T19:20:52.537Z,87.60
2022-10-06T19:23:20.597Z,87.70
2022-10-06T19:25:50.160Z,87.90
2022-10-06T19:28:18.286Z,88.40
2022-10-06T19:30:47.507Z,88.50
2022-10-06T19:33:15.841Z,89.10
2022-10-06T19:35:52.484Z,88.90
2022-10-06T19:38:20.842Z,89.40
2022-10-06T19:40:52.421Z,89.60
2022-10-06T19:43:19.613Z,89.80
2022-10-06T19:45:57.178Z,89.80
2022-10-06T19:48:25.352Z,90.40
2022-10-06T19:50:54.755Z,90.50
2022-10-06T19:53:22.943Z,91.60
2022-10-06T19:55:52.529Z,92.10
2022-10-06T19:58:20.700Z,92.20
2022-10-06T20:00:48.726Z,92.50
2022-10-06T20:03:20.702Z,92.80
2022-10-06T20:05:48.746Z,93.00
2022-10-06T20:08:16.821Z,92.90
2022-10-06T20:10:44.939Z,93.10
2022-10-06T20:13:15.084Z,93.70
2022-10-06T20:15:43.252Z,95.10
2022-10-06T20:18:12.037Z,95.90
2022-10-06T20:20:39.987Z,96.60
2022-10-06T20:23:08.434Z,96.80
2022-10-06T20:25:36.410Z,96.80
2022-10-06T20:28:08.766Z,97.40
2022-10-06T20:30:38.659Z,97.40
2022-10-06T20:33:07.464Z,97.30
2022-10-06T20:35:35.461Z,97.60
2022-10-06T20:38:05.951Z,97.90
2022-10-06T20:40:47.065Z,98.00
2022-10-06T20:43:15.491Z,98.10
2022-10-06T20:45:44.942Z,99.10
2022-10-06T20:48:14.307Z,99.90
2022-10-06T20:50:43.303Z,99.70
2022-10-06T20:53:11.333Z,99.00
2022-10-06T20:55:39.622Z,99.30
2022-10-06T20:58:08.039Z,99.00
2022-10-06T21:00:36.058Z,99.80
2022-10-06T21:03:05.585Z,99.70
2022-10-06T21:05:33.868Z,99.90
2022-10-06T21:08:01.829Z,99.90
2022-10-06T21:10:29.802Z,99.90
2022-10-06T21:12:58.154Z,99.90
2022-10-06T21:15:26.296Z,99.90
2022-10-06T21:17:54.340Z,99.90
2022-10-06T21:20:23.664Z,99.90
2022-10-06T21:22:52.600Z,99.90
2022-10-06T21:25:20.546Z,99.90
2022-10-06T21:27:48.932Z,99.90
2022-10-06T21:30:17.112Z,99.90
2022-10-06T21:32:45.082Z,99.90
2022-10-06T21:35:13.078Z,99.90
2022-10-06T21:37:44.751Z,99.90
2022-10-06T21:40:12.924Z,99.90
2022-10-06T21:42:40.942Z,99.90
2022-10-06T21:45:09.380Z,99.90
2022-10-06T21:47:39.677Z,99.90
2022-10-06T21:50:08.503Z,99.90
2022-10-06T21:52:36.555Z,99.90
2022-10-06T21:55:06.933Z,99.90
2022-10-06T21:57:34.908Z,99.90
2022-10-06T22:00:03.328Z,99.90
2022-10-06T22:02:40.976Z,99.90
2022-10-06T22:05:11.950Z,99.90
2022-10-06T22:07:40.093Z,99.90
2022-10-06T22:10:09.791Z,99.90
2022-10-06T22:12:37.750Z,99.90
2022-10-06T22:15:06.623Z,99.90
2022-10-06T22:17:34.686Z,99.90
2022-10-06T22:20:02.677Z,99.90
2022-10-06T22:22:30.681Z,99.90
2022-10-06T22:24:59.120Z,99.90
2022-10-06T22:27:28.515Z,99.90
2022-10-06T22:29:56.567Z,99.90
2022-10-06T22:32:24.567Z,99.90
2022-10-06T22:34:53.771Z,99.90
2022-10-06T22:37:21.746Z,99.90
2022-10-06T22:39:49.760Z,99.90
2022-10-06T22:42:17.841Z,99.90
2022-10-06T22:44:47.234Z,99.90
2022-10-06T22:47:17.450Z,99.90
2022-10-06T22:49:45.408Z,99.90
2022-10-06T22:52:13.354Z,99.90
2022-10-06T22:54:41.434Z,99.90
2022-10-06T22:57:09.420Z,99.90
2022-10-06T22:59:40.092Z,99.90
2022-10-06T23:02:09.454Z,99.90
2022-10-06T23:04:37.378Z,99.90
2022-10-06T23:07:05.341Z,99.90
2022-10-06T23:09:33.301Z,99.90
2022-10-06T23:12:01.494Z,99.90
2022-10-06T23:14:29.463Z,99.90
2022-10-06T23:16:57.451Z,99.90
2022-10-06T23:19:26.819Z,99.90
2022-10-06T23:21:57.245Z,99.90
2022-10-06T23:24:25.276Z,99.90
2022-10-06T23:26:53.270Z,99.90
2022-10-06T23:29:21.371Z,99.90
2022-10-06T23:31:49.428Z,99.90
2022-10-06T23:34:17.407Z,99.90
2022-10-06T23:36:46.716Z,99.90
2022-10-06T23:39:14.847Z,99.90
2022-10-06T23:41:42.921Z,99.90
2022-10-06T23:44:11.188Z,99.90
2022-10-06T23:46:39.161Z,99.90
2022-10-06T23:49:09.522Z,99.90
2022-10-06T23:51:37.957Z,99.90
2022-10-06T23:54:08.407Z,99.90
2022-10-06T23:56:36.641Z,99.90
2022-10-06T23:59:04.711Z,99.90
